WSAP/QPG METAR and TAF weather

Enter ICAO airport designator
Station Type Date Time Source
WSAP METAR 2019/09/21 21:00 UTC NOAA

WSAP 212100Z 13003KT 4000 HZ FEW018 BKN300 28/24 Q1010


Station Type Date Time Source
WSAP Decoded METAR 2019/09/21 21:00 UTC NOAA

Singapore / Paya Lebar, Singapore (WSAP) 01-22N 103-55E 32M
Sep 21, 2019 - 05:00 PM EDT / 2019.09.21 2100 UTC
Wind: from the SE (130 degrees) at 3 MPH (3 KT):0
Visibility: 2 mile(s):0
Sky conditions: mostly cloudy
Weather: haze
Temperature: 82 F (28 C)
Dew Point: 75 F (24 C)
Relative Humidity: 78%
Pressure (altimeter): 29.83 in. Hg (1010 hPa)
ob: WSAP 212100Z 13003KT 4000 HZ FEW018 BKN300 28/24 Q1010
cycle: 21

Station Type Date Time Source
WSAP TAF 2019/09/21 18:08 UTC NOAA

TAF WSAP 211700Z 2118/2300 14010KT 6000 HZ FEW015 SCT020
TEMPO 2120/2201 4500

Example: see airport list